Time;durP1;ratioP1;P1;durP2;ratioP2;P2;SDS_P1;SDS_P2;PMS_P1;PMS_P2;Temp;Humidity;BMP_temperature;BMP_pressure;BME280_temperature;BME280_humidity;BME280_pressure;Samples;Min_cycle;Max_cycle;Signal;HPM_P1;HPM_P2
2022/04/16 00:01:43;;;;;;;;;;;20.70;98.00;;;;;;5061998;28;19924;-58
2022/04/16 00:04:11;;;;;;;;;;;20.70;98.20;;;;;;5051030;28;19929;-61
2022/04/16 00:06:38;;;;;;;;;;;20.70;98.40;;;;;;5058733;28;19921;-60
2022/04/16 00:09:05;;;;;;;;;;;20.70;98.60;;;;;;5065108;28;19928;-59
2022/04/16 00:11:33;;;;;;;;;;;20.70;98.70;;;;;;5073952;28;19927;-60
2022/04/16 00:14:03;;;;;;;;;;;20.70;98.90;;;;;;5067816;28;19924;-61
2022/04/16 00:16:31;;;;;;;;;;;20.70;99.10;;;;;;5063004;28;19925;-61
2022/04/16 00:18:58;;;;;;;;;;;20.70;99.10;;;;;;5056066;28;19921;-62
2022/04/16 00:21:25;;;;;;;;;;;20.70;99.30;;;;;;5063373;28;19924;-60
2022/04/16 00:23:53;;;;;;;;;;;20.70;99.40;;;;;;5051372;28;19932;-58
2022/04/16 00:26:21;;;;;;;;;;;20.70;99.50;;;;;;5054846;28;19931;-56
2022/04/16 00:28:51;;;;;;;;;;;20.70;99.70;;;;;;5054575;28;19920;-60
2022/04/16 00:31:18;;;;;;;;;;;20.70;99.80;;;;;;5066718;28;19927;-56
2022/04/16 00:33:48;;;;;;;;;;;20.70;99.90;;;;;;5049973;28;20436;-60
2022/04/16 00:36:15;;;;;;;;;;;20.70;99.90;;;;;;5052116;28;19921;-59
2022/04/16 00:38:43;;;;;;;;;;;20.70;99.90;;;;;;5056268;28;19925;-60
2022/04/16 00:41:12;;;;;;;;;;;20.70;99.90;;;;;;5067129;28;19931;-58
2022/04/16 00:43:39;;;;;;;;;;;20.70;99.90;;;;;;5074591;28;19936;-60
2022/04/16 00:46:07;;;;;;;;;;;20.70;99.90;;;;;;5062629;28;19920;-60
2022/04/16 00:48:34;;;;;;;;;;;20.70;99.90;;;;;;5050009;28;19925;-59
2022/04/16 00:51:02;;;;;;;;;;;20.70;99.90;;;;;;5064099;28;19931;-60
2022/04/16 00:53:29;;;;;;;;;;;20.70;99.90;;;;;;5066025;28;19925;-60
2022/04/16 00:55:57;;;;;;;;;;;20.70;99.90;;;;;;5063940;28;19922;-59
2022/04/16 00:58:24;;;;;;;;;;;20.70;99.90;;;;;;5054997;28;19925;-59
2022/04/16 01:00:51;;;;;;;;;;;20.70;99.90;;;;;;5063871;28;20748;-59
2022/04/16 01:03:19;;;;;;;;;;;20.70;99.90;;;;;;5058095;28;19921;-59
2022/04/16 01:05:46;;;;;;;;;;;20.70;99.90;;;;;;5055298;28;19932;-59
2022/04/16 01:08:17;;;;;;;;;;;20.70;99.90;;;;;;5054936;28;19932;-59
2022/04/16 01:10:44;;;;;;;;;;;20.70;99.90;;;;;;5053606;28;19924;-61
2022/04/16 01:13:12;;;;;;;;;;;20.70;99.90;;;;;;5046980;28;19921;-60
2022/04/16 01:15:39;;;;;;;;;;;20.70;99.90;;;;;;5069839;28;19931;-60
2022/04/16 01:18:07;;;;;;;;;;;20.70;99.90;;;;;;5050970;28;20409;-58
2022/04/16 01:20:37;;;;;;;;;;;20.70;99.90;;;;;;5058431;28;20350;-59
2022/04/16 01:23:04;;;;;;;;;;;20.70;99.90;;;;;;5056393;28;19992;-58
2022/04/16 01:25:36;;;;;;;;;;;20.60;99.90;;;;;;5061370;28;20472;-59
2022/04/16 01:28:03;;;;;;;;;;;20.70;99.90;;;;;;5048245;28;19921;-57
2022/04/16 01:30:31;;;;;;;;;;;20.60;99.90;;;;;;5054664;28;19943;-60
2022/04/16 01:32:58;;;;;;;;;;;20.60;99.90;;;;;;5045805;28;19936;-59
2022/04/16 01:35:25;;;;;;;;;;;20.60;99.90;;;;;;5049366;28;19931;-60
2022/04/16 01:37:52;;;;;;;;;;;20.60;99.90;;;;;;5047522;28;19929;-60
2022/04/16 01:40:20;;;;;;;;;;;20.60;99.90;;;;;;5064381;28;19931;-60
2022/04/16 01:42:47;;;;;;;;;;;20.60;99.90;;;;;;5047951;28;19936;-60
2022/04/16 01:45:18;;;;;;;;;;;20.70;99.90;;;;;;5033473;28;19937;-60
2022/04/16 01:47:46;;;;;;;;;;;20.60;99.90;;;;;;5062663;28;20419;-58
2022/04/16 01:50:13;;;;;;;;;;;20.60;99.90;;;;;;5051627;28;19928;-59
2022/04/16 01:52:44;;;;;;;;;;;20.60;99.90;;;;;;5060886;28;19924;-59
2022/04/16 01:55:12;;;;;;;;;;;20.60;99.90;;;;;;5055364;28;19931;-59
2022/04/16 01:57:39;;;;;;;;;;;20.60;99.90;;;;;;5049319;28;19924;-59
2022/04/16 02:00:08;;;;;;;;;;;20.60;99.90;;;;;;5049114;28;20272;-59
2022/04/16 02:02:36;;;;;;;;;;;20.60;99.90;;;;;;5047668;28;19987;-58
2022/04/16 02:05:05;;;;;;;;;;;20.60;99.90;;;;;;5039080;28;20280;-59
2022/04/16 02:07:32;;;;;;;;;;;20.60;99.90;;;;;;5051533;28;19928;-57
2022/04/16 02:10:00;;;;;;;;;;;20.60;99.90;;;;;;5057148;28;19924;-58
2022/04/16 02:12:27;;;;;;;;;;;20.60;99.90;;;;;;5051013;28;19929;-58
2022/04/16 02:14:55;;;;;;;;;;;20.60;99.90;;;;;;5055764;28;20425;-58
2022/04/16 02:17:23;;;;;;;;;;;20.60;99.90;;;;;;5054464;28;19936;-58
2022/04/16 02:19:50;;;;;;;;;;;20.60;99.90;;;;;;5065010;28;19924;-58
2022/04/16 02:22:17;;;;;;;;;;;20.60;99.90;;;;;;5051405;28;19932;-58
2022/04/16 02:24:46;;;;;;;;;;;20.60;99.90;;;;;;5064918;28;19924;-58
2022/04/16 02:27:14;;;;;;;;;;;20.60;99.90;;;;;;5050135;28;19924;-58
2022/04/16 02:29:42;;;;;;;;;;;20.60;99.90;;;;;;5062531;28;19927;-59
2022/04/16 02:32:09;;;;;;;;;;;20.60;99.90;;;;;;5064287;28;20389;-57
2022/04/16 02:34:36;;;;;;;;;;;20.60;99.90;;;;;;5050906;28;19920;-57
2022/04/16 02:37:04;;;;;;;;;;;20.50;99.90;;;;;;5049066;28;19921;-60
2022/04/16 02:39:31;;;;;;;;;;;20.50;99.90;;;;;;5052819;28;19924;-59
2022/04/16 02:41:58;;;;;;;;;;;20.50;99.90;;;;;;5053462;28;19924;-59
2022/04/16 02:47:13;;;;;;;;;;;20.50;99.90;;;;;;5061285;28;19932;-60
2022/04/16 02:49:40;;;;;;;;;;;20.50;99.90;;;;;;5054316;28;19924;-55
2022/04/16 02:52:08;;;;;;;;;;;20.50;99.90;;;;;;5034532;28;20286;-58
2022/04/16 02:54:36;;;;;;;;;;;20.50;99.90;;;;;;5056867;28;19924;-59
2022/04/16 02:57:04;;;;;;;;;;;20.50;99.90;;;;;;5067376;28;19927;-59
2022/04/16 02:59:33;;;;;;;;;;;20.50;99.90;;;;;;5082456;28;20013;-62
2022/04/16 03:02:01;;;;;;;;;;;20.50;99.90;;;;;;5074248;28;19927;-60
2022/04/16 03:04:28;;;;;;;;;;;20.50;99.90;;;;;;5045088;28;19951;-58
2022/04/16 03:06:55;;;;;;;;;;;20.50;99.90;;;;;;5054429;28;20425;-59
2022/04/16 03:09:22;;;;;;;;;;;20.50;99.90;;;;;;5061909;28;20403;-59
2022/04/16 03:11:49;;;;;;;;;;;20.50;99.90;;;;;;5055128;28;19924;-58
2022/04/16 03:19:48;;;;;;;;;;;20.50;99.90;;;;;;5054029;28;19921;-58
2022/04/16 03:22:15;;;;;;;;;;;20.50;99.90;;;;;;5071450;28;19920;-58
2022/04/16 03:24:42;;;;;;;;;;;20.50;99.90;;;;;;5060168;28;20401;-57
2022/04/16 03:27:09;;;;;;;;;;;20.50;99.90;;;;;;5063658;28;19924;-59
2022/04/16 03:29:37;;;;;;;;;;;20.40;99.90;;;;;;5062736;28;19924;-59
2022/04/16 03:32:04;;;;;;;;;;;20.50;99.90;;;;;;5061969;28;19924;-57
2022/04/16 03:34:32;;;;;;;;;;;20.40;99.90;;;;;;5054866;28;19932;-60
2022/04/16 03:36:59;;;;;;;;;;;20.40;99.90;;;;;;5052895;28;19928;-60
2022/04/16 03:39:26;;;;;;;;;;;20.40;99.90;;;;;;5070012;28;19932;-61
2022/04/16 03:41:53;;;;;;;;;;;20.40;99.90;;;;;;5060251;28;19931;-59
2022/04/16 03:44:20;;;;;;;;;;;20.40;99.90;;;;;;5053528;28;20278;-59
2022/04/16 03:46:47;;;;;;;;;;;20.40;99.90;;;;;;5062021;28;19928;-59
2022/04/16 03:49:15;;;;;;;;;;;20.40;99.90;;;;;;5061397;28;19931;-58
2022/04/16 03:51:42;;;;;;;;;;;20.40;99.90;;;;;;5065950;28;19921;-58
2022/04/16 04:02:27;;;;;;;;;;;20.40;99.90;;;;;;5060877;28;19958;-59
2022/04/16 04:04:55;;;;;;;;;;;20.40;99.90;;;;;;5053082;28;19932;-59
2022/04/16 04:07:23;;;;;;;;;;;20.40;99.90;;;;;;5052880;28;19924;-58
2022/04/16 04:09:50;;;;;;;;;;;20.40;99.90;;;;;;5056698;28;19925;-59
2022/04/16 04:12:17;;;;;;;;;;;20.40;99.90;;;;;;5067225;28;20251;-58
2022/04/16 04:14:45;;;;;;;;;;;20.40;99.90;;;;;;5056467;28;19929;-57
2022/04/16 04:17:12;;;;;;;;;;;20.40;99.90;;;;;;5066156;28;19920;-58
2022/04/16 04:19:49;;;;;;;;;;;20.40;99.90;;;;;;5060784;28;19924;-58
2022/04/16 04:22:16;;;;;;;;;;;20.40;99.90;;;;;;5066210;28;19924;-57
2022/04/16 04:24:43;;;;;;;;;;;20.40;99.90;;;;;;5058145;28;19928;-58
2022/04/16 04:27:11;;;;;;;;;;;20.40;99.90;;;;;;5056324;28;19932;-59
2022/04/16 04:29:38;;;;;;;;;;;20.40;99.90;;;;;;5051869;28;19929;-55
2022/04/16 04:32:05;;;;;;;;;;;20.40;99.90;;;;;;5050430;28;19932;-56
2022/04/16 04:34:33;;;;;;;;;;;20.40;99.90;;;;;;5049810;28;19920;-58
2022/04/16 04:37:00;;;;;;;;;;;20.40;99.90;;;;;;5056486;28;20333;-55
2022/04/16 04:39:27;;;;;;;;;;;20.40;99.90;;;;;;5048832;28;19939;-60
2022/04/16 04:41:54;;;;;;;;;;;20.40;99.90;;;;;;5074850;28;19947;-60
2022/04/16 04:44:22;;;;;;;;;;;20.40;99.90;;;;;;5058790;28;19935;-58
2022/04/16 04:46:53;;;;;;;;;;;20.40;99.90;;;;;;5064285;28;19936;-59
2022/04/16 04:49:20;;;;;;;;;;;20.40;99.90;;;;;;5061302;28;19924;-59
2022/04/16 04:51:47;;;;;;;;;;;20.40;99.90;;;;;;5059347;28;19932;-60
2022/04/16 04:54:14;;;;;;;;;;;20.40;99.90;;;;;;5057958;28;19924;-68
2022/04/16 04:56:42;;;;;;;;;;;20.40;99.90;;;;;;5040214;28;19936;-53
2022/04/16 04:59:09;;;;;;;;;;;20.50;99.90;;;;;;5054000;28;19960;-57
2022/04/16 05:01:36;;;;;;;;;;;20.40;99.90;;;;;;5052390;28;19921;-56
2022/04/16 05:04:03;;;;;;;;;;;20.50;99.90;;;;;;5058195;28;19924;-53
2022/04/16 05:06:31;;;;;;;;;;;20.50;99.90;;;;;;5064920;28;19928;-55
2022/04/16 05:08:58;;;;;;;;;;;20.50;99.90;;;;;;5040520;28;19924;-56
2022/04/16 05:11:25;;;;;;;;;;;20.50;99.90;;;;;;5054675;28;19924;-55
2022/04/16 05:13:52;;;;;;;;;;;20.60;99.90;;;;;;5058253;28;19931;-53
2022/04/16 05:16:19;;;;;;;;;;;20.60;99.90;;;;;;5054917;28;19925;-55
2022/04/16 05:18:46;;;;;;;;;;;20.60;99.90;;;;;;5062123;28;19924;-58
2022/04/16 05:21:13;;;;;;;;;;;20.60;99.90;;;;;;5067951;28;20350;-53
2022/04/16 05:23:40;;;;;;;;;;;20.60;99.90;;;;;;5056809;28;19932;-57
2022/04/16 05:26:08;;;;;;;;;;;20.50;99.90;;;;;;5057243;28;20923;-60
2022/04/16 05:28:36;;;;;;;;;;;20.50;99.90;;;;;;5055327;28;20293;-59
2022/04/16 05:31:04;;;;;;;;;;;20.50;99.90;;;;;;5050914;28;19935;-58
2022/04/16 05:36:17;;;;;;;;;;;20.40;99.90;;;;;;5051429;28;19930;-58
2022/04/16 05:38:45;;;;;;;;;;;20.50;99.90;;;;;;5056578;28;19930;-58
2022/04/16 05:41:12;;;;;;;;;;;20.50;99.90;;;;;;5059178;28;19921;-64
2022/04/16 05:43:39;;;;;;;;;;;20.50;99.90;;;;;;5059993;28;19935;-63
2022/04/16 05:46:07;;;;;;;;;;;20.50;99.90;;;;;;5067748;28;19928;-58
2022/04/16 05:48:34;;;;;;;;;;;20.50;99.90;;;;;;5066321;28;19935;-61
2022/04/16 05:51:02;;;;;;;;;;;20.50;99.90;;;;;;5059903;28;19931;-62
2022/04/16 05:53:31;;;;;;;;;;;20.50;99.90;;;;;;5046905;28;19931;-62
2022/04/16 05:55:58;;;;;;;;;;;20.50;99.90;;;;;;5055403;28;19924;-60
2022/04/16 05:58:25;;;;;;;;;;;20.50;99.90;;;;;;5057401;28;19924;-60
2022/04/16 06:00:52;;;;;;;;;;;20.50;99.90;;;;;;5054404;28;19931;-61
2022/04/16 06:03:20;;;;;;;;;;;20.50;99.90;;;;;;5059022;28;20405;-59
2022/04/16 06:05:47;;;;;;;;;;;20.50;99.90;;;;;;5055656;28;19947;-59
2022/04/16 06:08:14;;;;;;;;;;;20.50;99.90;;;;;;5061038;28;20384;-61
2022/04/16 06:10:41;;;;;;;;;;;20.50;99.90;;;;;;5050248;28;19920;-59
2022/04/16 06:13:11;;;;;;;;;;;20.50;99.90;;;;;;5053408;28;19931;-58
2022/04/16 06:15:39;;;;;;;;;;;20.40;99.90;;;;;;5060245;28;19920;-66
2022/04/16 06:18:06;;;;;;;;;;;20.50;99.90;;;;;;5068150;28;19921;-55
2022/04/16 06:20:34;;;;;;;;;;;20.50;99.90;;;;;;5065233;28;20278;-56
2022/04/16 06:23:02;;;;;;;;;;;20.50;99.90;;;;;;5036653;28;20248;-63
2022/04/16 06:25:29;;;;;;;;;;;20.50;99.90;;;;;;5057539;28;19925;-57
2022/04/16 06:27:56;;;;;;;;;;;20.40;99.90;;;;;;5052231;28;19928;-65
2022/04/16 06:30:23;;;;;;;;;;;20.50;99.90;;;;;;5061733;28;19931;-64
2022/04/16 06:32:50;;;;;;;;;;;20.50;99.90;;;;;;5058562;28;19927;-64
2022/04/16 06:35:17;;;;;;;;;;;20.50;99.90;;;;;;5065851;28;19921;-63
2022/04/16 06:37:45;;;;;;;;;;;20.50;99.90;;;;;;5055548;28;19929;-63
2022/04/16 06:40:12;;;;;;;;;;;20.60;99.90;;;;;;5055824;28;20381;-63
2022/04/16 06:42:40;;;;;;;;;;;20.60;99.90;;;;;;5052126;28;19928;-63
2022/04/16 06:45:08;;;;;;;;;;;20.60;99.90;;;;;;5053098;28;19932;-64
2022/04/16 06:47:36;;;;;;;;;;;20.70;99.90;;;;;;5035417;28;19920;-65
2022/04/16 06:50:03;;;;;;;;;;;20.70;99.90;;;;;;5047601;28;19931;-64
2022/04/16 06:52:31;;;;;;;;;;;20.70;99.90;;;;;;5053759;28;19936;-64
2022/04/16 06:54:59;;;;;;;;;;;20.70;99.90;;;;;;5055474;28;19932;-61
2022/04/16 06:57:26;;;;;;;;;;;20.70;99.90;;;;;;5052214;28;19925;-62
2022/04/16 07:00:01;;;;;;;;;;;20.70;99.90;;;;;;5061796;28;19920;-63
2022/04/16 07:02:28;;;;;;;;;;;20.70;99.90;;;;;;5051901;28;20030;-59
2022/04/16 07:04:55;;;;;;;;;;;20.70;99.90;;;;;;5047076;28;20511;-60
2022/04/16 07:07:22;;;;;;;;;;;20.70;99.90;;;;;;5053665;28;20309;-62
2022/04/16 07:09:49;;;;;;;;;;;20.60;99.90;;;;;;5045909;28;19925;-62
2022/04/16 07:12:17;;;;;;;;;;;20.70;99.90;;;;;;5061852;28;19931;-60
2022/04/16 07:14:45;;;;;;;;;;;20.70;99.90;;;;;;5055488;28;19929;-62
2022/04/16 07:17:18;;;;;;;;;;;20.70;99.90;;;;;;5057383;28;19927;-62
2022/04/16 07:19:45;;;;;;;;;;;20.80;99.90;;;;;;5056571;28;19931;-62
2022/04/16 07:22:12;;;;;;;;;;;20.80;99.90;;;;;;5030689;28;19924;-59
2022/04/16 07:24:42;;;;;;;;;;;20.80;99.90;;;;;;5047477;28;19939;-62
2022/04/16 07:27:10;;;;;;;;;;;20.80;99.90;;;;;;5058443;28;20228;-63
2022/04/16 07:29:37;;;;;;;;;;;20.80;99.90;;;;;;5049904;28;19936;-64
2022/04/16 07:32:04;;;;;;;;;;;20.80;99.90;;;;;;5060780;28;20401;-65
2022/04/16 07:34:32;;;;;;;;;;;20.80;99.90;;;;;;5042096;28;19931;-62
2022/04/16 07:37:01;;;;;;;;;;;20.90;99.90;;;;;;5062616;28;20342;-65
2022/04/16 07:39:28;;;;;;;;;;;20.90;99.90;;;;;;5051241;28;19947;-61
2022/04/16 07:41:57;;;;;;;;;;;20.90;99.90;;;;;;5057037;28;19928;-63
2022/04/16 07:44:24;;;;;;;;;;;20.90;99.90;;;;;;5080010;28;19938;-66
2022/04/16 07:46:51;;;;;;;;;;;20.90;99.90;;;;;;5058325;28;19921;-59
2022/04/16 07:49:18;;;;;;;;;;;20.90;99.90;;;;;;5063563;28;19924;-62
2022/04/16 07:51:45;;;;;;;;;;;20.90;99.90;;;;;;5064674;28;20313;-62
2022/04/16 07:54:12;;;;;;;;;;;20.90;99.90;;;;;;5063655;28;19932;-59
2022/04/16 07:56:40;;;;;;;;;;;20.90;99.90;;;;;;5047851;28;19925;-61
2022/04/16 07:59:07;;;;;;;;;;;20.90;99.90;;;;;;5061077;28;19924;-60
2022/04/16 08:01:34;;;;;;;;;;;20.90;99.90;;;;;;5053313;28;19924;-61
2022/04/16 08:04:01;;;;;;;;;;;20.90;99.90;;;;;;5056915;28;19936;-63
2022/04/16 08:06:28;;;;;;;;;;;20.90;99.90;;;;;;5064717;28;19931;-60
2022/04/16 08:09:00;;;;;;;;;;;20.90;99.90;;;;;;5060374;28;19929;-60
2022/04/16 08:11:28;;;;;;;;;;;20.90;99.90;;;;;;5055315;28;20012;-61
2022/04/16 08:13:56;;;;;;;;;;;20.90;99.90;;;;;;5060156;28;19936;-61
2022/04/16 08:16:23;;;;;;;;;;;20.90;99.90;;;;;;5060138;28;19924;-63
2022/04/16 08:18:51;;;;;;;;;;;21.00;99.90;;;;;;5061487;28;19920;-61
2022/04/16 08:21:20;;;;;;;;;;;21.00;99.90;;;;;;5060513;28;20417;-60
2022/04/16 08:24:04;;;;;;;;;;;21.00;99.90;;;;;;5062696;28;19944;-60
2022/04/16 08:26:31;;;;;;;;;;;21.00;99.90;;;;;;5064474;28;19953;-65
2022/04/16 08:28:59;;;;;;;;;;;21.00;99.90;;;;;;5063324;28;19925;-63
2022/04/16 08:31:26;;;;;;;;;;;20.90;99.90;;;;;;5051970;28;19928;-61
2022/04/16 08:33:54;;;;;;;;;;;20.60;99.90;;;;;;5061913;28;20337;-60
2022/04/16 08:36:21;;;;;;;;;;;20.20;99.50;;;;;;5068848;28;19920;-59
2022/04/16 08:38:48;;;;;;;;;;;20.00;99.90;;;;;;5069232;28;19920;-63
2022/04/16 08:41:16;;;;;;;;;;;19.90;99.90;;;;;;5070204;28;19921;-62
2022/04/16 08:43:44;;;;;;;;;;;19.70;97.80;;;;;;5066304;28;19931;-63
2022/04/16 08:46:11;;;;;;;;;;;19.60;98.20;;;;;;5061808;28;19924;-61
2022/04/16 08:48:40;;;;;;;;;;;19.50;99.40;;;;;;5054552;28;20468;-61
2022/04/16 08:51:07;;;;;;;;;;;19.50;97.80;;;;;;5067861;28;19924;-61
2022/04/16 08:53:35;;;;;;;;;;;19.40;96.60;;;;;;5054250;28;19924;-63
2022/04/16 08:56:03;;;;;;;;;;;19.50;99.90;;;;;;5058723;28;19921;-61
2022/04/16 08:58:30;;;;;;;;;;;19.90;99.90;;;;;;5057012;28;19921;-59
2022/04/16 09:00:59;;;;;;;;;;;20.20;99.90;;;;;;5063228;28;19920;-64
2022/04/16 09:03:36;;;;;;;;;;;20.40;99.90;;;;;;5048087;28;19928;-63
2022/04/16 09:06:03;;;;;;;;;;;20.60;99.90;;;;;;5056232;28;20381;-62
2022/04/16 09:08:31;;;;;;;;;;;20.70;99.90;;;;;;5059441;28;19920;-62
2022/04/16 09:11:04;;;;;;;;;;;20.80;99.90;;;;;;5053372;28;20308;-59
2022/04/16 09:13:32;;;;;;;;;;;20.80;99.90;;;;;;5060458;28;19924;-56
2022/04/16 09:16:03;;;;;;;;;;;20.80;99.90;;;;;;5058307;28;19954;-57
2022/04/16 09:18:30;;;;;;;;;;;20.80;99.90;;;;;;5043298;28;19951;-58
2022/04/16 09:20:57;;;;;;;;;;;20.90;99.90;;;;;;5060827;28;19927;-56
2022/04/16 09:23:24;;;;;;;;;;;20.90;99.90;;;;;;5057383;28;20285;-59
2022/04/16 09:25:52;;;;;;;;;;;20.90;99.90;;;;;;5053774;28;19924;-57
2022/04/16 09:28:19;;;;;;;;;;;20.90;99.90;;;;;;5059009;28;20313;-57
2022/04/16 09:30:53;;;;;;;;;;;20.90;99.90;;;;;;5056082;28;21463;-60
2022/04/16 09:33:21;;;;;;;;;;;20.90;99.90;;;;;;5049115;28;19920;-53
2022/04/16 09:35:52;;;;;;;;;;;20.90;99.90;;;;;;5050169;28;19952;-58
2022/04/16 09:38:19;;;;;;;;;;;20.80;99.90;;;;;;5054810;28;19924;-56
2022/04/16 09:40:47;;;;;;;;;;;20.80;99.90;;;;;;5060423;28;19928;-59
2022/04/16 09:43:15;;;;;;;;;;;20.80;99.90;;;;;;5065581;28;20389;-60
2022/04/16 09:45:45;;;;;;;;;;;20.80;99.90;;;;;;5056542;28;20398;-56
2022/04/16 09:48:12;;;;;;;;;;;20.90;99.90;;;;;;5057757;28;20483;-56
2022/04/16 09:50:41;;;;;;;;;;;20.90;99.90;;;;;;5059908;28;19924;-58
2022/04/16 09:53:09;;;;;;;;;;;20.90;99.90;;;;;;5051088;28;20007;-58
2022/04/16 09:55:36;;;;;;;;;;;20.90;99.90;;;;;;5052529;28;20098;-58
2022/04/16 09:58:05;;;;;;;;;;;20.90;99.90;;;;;;5051297;28;20243;-59
2022/04/16 10:00:33;;;;;;;;;;;20.90;99.90;;;;;;5059763;28;19924;-57
2022/04/16 10:03:20;;;;;;;;;;;20.90;99.90;;;;;;5060674;28;20329;-56
2022/04/16 10:05:48;;;;;;;;;;;20.90;99.90;;;;;;5062621;28;19927;-60
2022/04/16 10:08:16;;;;;;;;;;;20.90;99.90;;;;;;5053502;28;19929;-57
2022/04/16 10:10:51;;;;;;;;;;;20.90;99.90;;;;;;5054483;28;20350;-58
2022/04/16 10:13:20;;;;;;;;;;;20.90;99.90;;;;;;5062283;28;20415;-58
2022/04/16 10:15:57;;;;;;;;;;;20.80;99.90;;;;;;5056237;28;19927;-55
2022/04/16 10:18:25;;;;;;;;;;;20.80;99.90;;;;;;5056502;28;19928;-55
2022/04/16 10:20:56;;;;;;;;;;;20.70;99.90;;;;;;5055712;28;19924;-58
2022/04/16 10:23:37;;;;;;;;;;;20.70;99.90;;;;;;5046923;28;19925;-57
2022/04/16 10:26:15;;;;;;;;;;;20.70;99.90;;;;;;5053257;28;19924;-57
2022/04/16 10:28:43;;;;;;;;;;;20.80;99.90;;;;;;5050193;28;20318;-60
2022/04/16 10:31:20;;;;;;;;;;;20.80;99.90;;;;;;5057938;28;19995;-57
2022/04/16 10:33:58;;;;;;;;;;;20.80;99.90;;;;;;5047686;28;19936;-57
2022/04/16 10:36:27;;;;;;;;;;;20.70;99.90;;;;;;5056418;28;19924;-56
2022/04/16 10:38:54;;;;;;;;;;;20.70;99.90;;;;;;5048681;28;19924;-56
2022/04/16 10:41:25;;;;;;;;;;;20.80;99.90;;;;;;5061098;28;19925;-58
2022/04/16 10:44:00;;;;;;;;;;;20.80;99.90;;;;;;5051877;28;19921;-56
2022/04/16 10:46:48;;;;;;;;;;;20.70;99.90;;;;;;5055988;28;20446;-59
2022/04/16 10:49:16;;;;;;;;;;;20.70;99.90;;;;;;5049905;28;19943;-56
2022/04/16 10:51:44;;;;;;;;;;;20.70;99.90;;;;;;5051271;28;19929;-58
2022/04/16 10:54:15;;;;;;;;;;;20.80;99.90;;;;;;5047061;28;19939;-59
2022/04/16 10:56:51;;;;;;;;;;;20.70;99.90;;;;;;5054908;28;19921;-58
2022/04/16 10:59:35;;;;;;;;;;;20.70;99.90;;;;;;5052552;28;20000;-58
2022/04/16 11:02:13;;;;;;;;;;;20.70;99.90;;;;;;5051539;28;20354;-58
2022/04/16 11:04:41;;;;;;;;;;;20.70;99.90;;;;;;5048843;28;19920;-59
2022/04/16 11:07:10;;;;;;;;;;;20.70;99.90;;;;;;5056879;28;19921;-59
2022/04/16 11:09:38;;;;;;;;;;;20.70;99.90;;;;;;5055117;28;19929;-59
2022/04/16 11:12:07;;;;;;;;;;;20.70;99.90;;;;;;5053999;28;19920;-57
2022/04/16 11:14:36;;;;;;;;;;;20.70;99.90;;;;;;5060528;28;19931;-60
2022/04/16 11:17:03;;;;;;;;;;;20.70;99.90;;;;;;5045214;28;19927;-58
2022/04/16 11:19:31;;;;;;;;;;;20.70;99.90;;;;;;5063226;28;19920;-59
2022/04/16 11:21:58;;;;;;;;;;;20.70;99.90;;;;;;5039475;28;19943;-58
2022/04/16 11:24:28;;;;;;;;;;;20.70;99.90;;;;;;5057961;28;19928;-59
2022/04/16 11:35:24;;;;;;;;;;;20.60;99.90;;;;;;5043669;28;19929;-57
2022/04/16 11:37:54;;;;;;;;;;;20.60;99.90;;;;;;5055559;28;19921;-57
2022/04/16 11:40:22;;;;;;;;;;;20.60;99.90;;;;;;5057957;28;20266;-56
2022/04/16 11:42:49;;;;;;;;;;;20.70;99.90;;;;;;5051555;28;19932;-59
2022/04/16 11:45:16;;;;;;;;;;;20.60;99.90;;;;;;5067051;28;20358;-56
2022/04/16 11:47:43;;;;;;;;;;;20.60;99.90;;;;;;5063426;28;20406;-56
2022/04/16 11:50:11;;;;;;;;;;;20.60;99.90;;;;;;5059535;28;20416;-57
2022/04/16 11:52:39;;;;;;;;;;;20.60;99.90;;;;;;5059067;28;20362;-57
2022/04/16 11:55:16;;;;;;;;;;;20.60;99.90;;;;;;5054501;28;19925;-56
2022/04/16 11:57:45;;;;;;;;;;;20.60;99.90;;;;;;5068669;28;20416;-58
2022/04/16 12:00:13;;;;;;;;;;;20.60;99.90;;;;;;5069061;28;20381;-56
2022/04/16 12:02:47;;;;;;;;;;;20.60;99.90;;;;;;5068740;28;19924;-57
2022/04/16 12:05:15;;;;;;;;;;;20.60;99.90;;;;;;5056975;28;19924;-59
2022/04/16 12:07:44;;;;;;;;;;;20.60;99.90;;;;;;5047272;28;19940;-55
2022/04/16 12:10:13;;;;;;;;;;;20.60;99.90;;;;;;5055164;28;20321;-58
2022/04/16 12:12:42;;;;;;;;;;;20.60;99.90;;;;;;5049308;28;19925;-58
2022/04/16 12:15:09;;;;;;;;;;;20.60;99.90;;;;;;5055113;28;19940;-60
2022/04/16 12:17:40;;;;;;;;;;;20.60;99.90;;;;;;5051205;28;19940;-55
2022/04/16 12:20:10;;;;;;;;;;;20.60;99.90;;;;;;5042503;28;19925;-57
2022/04/16 12:22:47;;;;;;;;;;;20.60;99.90;;;;;;5050955;28;19921;-59
2022/04/16 12:25:15;;;;;;;;;;;20.60;99.90;;;;;;5050319;28;20374;-59
2022/04/16 12:27:43;;;;;;;;;;;20.50;99.90;;;;;;5051931;28;19920;-57
2022/04/16 12:30:18;;;;;;;;;;;20.50;99.90;;;;;;5056371;28;20405;-58
2022/04/16 12:32:55;;;;;;;;;;;20.60;99.90;;;;;;5058813;28;19931;-56
2022/04/16 12:35:24;;;;;;;;;;;20.60;99.90;;;;;;5062260;28;19929;-56
2022/04/16 12:37:53;;;;;;;;;;;20.50;99.90;;;;;;5062082;28;20294;-59
2022/04/16 12:40:21;;;;;;;;;;;20.50;99.90;;;;;;5057378;28;19943;-59
2022/04/16 12:42:49;;;;;;;;;;;20.60;99.90;;;;;;5068311;28;19925;-56
2022/04/16 12:45:16;;;;;;;;;;;20.50;99.90;;;;;;5066080;28;20309;-57
2022/04/16 12:47:44;;;;;;;;;;;20.60;99.90;;;;;;5056923;28;19935;-59
2022/04/16 12:50:11;;;;;;;;;;;20.60;99.90;;;;;;5057370;28;19925;-57
2022/04/16 12:52:38;;;;;;;;;;;20.60;99.90;;;;;;5062113;28;19929;-57
2022/04/16 12:55:06;;;;;;;;;;;20.60;99.90;;;;;;5066740;28;19931;-58
2022/04/16 12:57:33;;;;;;;;;;;20.60;99.90;;;;;;5067371;28;19924;-59
2022/04/16 13:00:00;;;;;;;;;;;20.60;99.90;;;;;;5051489;28;20038;-59
2022/04/16 13:02:29;;;;;;;;;;;20.60;99.90;;;;;;5063561;28;20281;-59
2022/04/16 13:04:56;;;;;;;;;;;20.60;99.90;;;;;;5040158;28;20397;-55
2022/04/16 13:07:23;;;;;;;;;;;20.50;99.90;;;;;;5065722;28;20405;-58
2022/04/16 13:09:50;;;;;;;;;;;20.60;99.90;;;;;;5067011;28;20298;-58
2022/04/16 13:12:19;;;;;;;;;;;20.60;99.90;;;;;;5068590;28;19928;-58
2022/04/16 13:14:46;;;;;;;;;;;20.60;99.90;;;;;;5042352;28;19924;-59
2022/04/16 13:17:14;;;;;;;;;;;20.60;99.90;;;;;;5065596;28;20112;-60
2022/04/16 13:19:44;;;;;;;;;;;20.60;99.90;;;;;;5068215;28;19931;-56
2022/04/16 13:22:12;;;;;;;;;;;20.70;99.90;;;;;;5052465;28;19965;-60
2022/04/16 13:24:39;;;;;;;;;;;20.70;99.90;;;;;;5053719;28;19936;-59
2022/04/16 13:27:06;;;;;;;;;;;20.70;99.90;;;;;;5056415;28;20413;-55
2022/04/16 13:29:34;;;;;;;;;;;20.80;99.90;;;;;;5068746;28;19920;-57
2022/04/16 13:32:02;;;;;;;;;;;20.80;99.90;;;;;;5045863;28;19925;-58
2022/04/16 13:34:32;;;;;;;;;;;20.80;99.90;;;;;;5056296;28;19920;-57
2022/04/16 13:37:00;;;;;;;;;;;20.80;99.90;;;;;;5066035;28;20393;-60
2022/04/16 13:42:14;;;;;;;;;;;20.90;99.90;;;;;;5048650;28;19947;-56
2022/04/16 13:44:42;;;;;;;;;;;20.90;99.90;;;;;;5059164;28;19936;-56
2022/04/16 13:47:09;;;;;;;;;;;20.90;99.90;;;;;;5045307;28;19928;-56
2022/04/16 13:49:36;;;;;;;;;;;21.00;99.90;;;;;;5061421;28;20369;-56
2022/04/16 13:52:03;;;;;;;;;;;21.10;99.90;;;;;;5053651;28;20329;-55
2022/04/16 13:54:30;;;;;;;;;;;21.10;99.90;;;;;;5047896;28;20389;-59
2022/04/16 13:56:58;;;;;;;;;;;21.10;99.90;;;;;;5051412;28;19921;-56
2022/04/16 13:59:25;;;;;;;;;;;21.20;99.90;;;;;;5059771;28;19924;-58
2022/04/16 14:01:52;;;;;;;;;;;21.20;99.90;;;;;;5062245;28;19999;-56
2022/04/16 14:04:19;;;;;;;;;;;21.20;99.90;;;;;;5065052;28;19947;-54
2022/04/16 14:06:47;;;;;;;;;;;21.20;99.90;;;;;;5055693;28;19931;-56
2022/04/16 14:09:14;;;;;;;;;;;21.30;99.90;;;;;;5050518;28;19925;-59
2022/04/16 14:11:45;;;;;;;;;;;21.30;99.90;;;;;;5063404;28;19932;-59
2022/04/16 14:14:12;;;;;;;;;;;21.40;99.90;;;;;;5041259;28;19943;-59
2022/04/16 14:16:39;;;;;;;;;;;21.40;99.90;;;;;;5050142;28;20270;-59
2022/04/16 14:19:10;;;;;;;;;;;21.40;99.90;;;;;;5058741;28;19939;-54
2022/04/16 14:21:44;;;;;;;;;;;21.50;99.90;;;;;;5044049;28;19929;-59
2022/04/16 14:24:11;;;;;;;;;;;21.50;99.90;;;;;;5047849;28;19944;-59
2022/04/16 14:26:39;;;;;;;;;;;21.50;99.90;;;;;;5054599;28;20229;-57
2022/04/16 14:29:06;;;;;;;;;;;21.50;99.90;;;;;;5048015;28;20397;-55
2022/04/16 14:31:33;;;;;;;;;;;21.60;99.90;;;;;;5060062;28;19927;-58
2022/04/16 14:34:04;;;;;;;;;;;21.70;99.90;;;;;;5053556;28;19920;-56
2022/04/16 14:36:31;;;;;;;;;;;21.70;99.90;;;;;;5073200;28;19931;-58
2022/04/16 14:38:59;;;;;;;;;;;21.70;99.80;;;;;;5057936;28;19928;-56
2022/04/16 14:41:26;;;;;;;;;;;21.70;99.70;;;;;;5061045;28;19921;-53
2022/04/16 14:43:58;;;;;;;;;;;21.70;99.60;;;;;;5055356;28;19924;-55
2022/04/16 14:46:25;;;;;;;;;;;21.80;99.40;;;;;;5040680;28;19932;-58
2022/04/16 14:48:55;;;;;;;;;;;21.80;99.30;;;;;;5050795;28;20467;-57
2022/04/16 14:51:24;;;;;;;;;;;21.90;99.20;;;;;;5053549;28;19925;-58
2022/04/16 14:53:51;;;;;;;;;;;21.90;99.10;;;;;;5046994;28;19927;-58